createdAt,value
2024-01-20T00:00:46.505Z,-2.17
2024-01-20T00:03:34.755Z,-2.20
2024-01-20T00:06:03.334Z,-2.21
2024-01-20T00:08:33.112Z,-2.22
2024-01-20T00:11:01.588Z,-2.24
2024-01-20T00:13:30.704Z,-2.24
2024-01-20T00:16:00.448Z,-2.25
2024-01-20T00:18:29.217Z,-2.26
2024-01-20T00:20:57.958Z,-2.28
2024-01-20T00:23:26.779Z,-2.29
2024-01-20T00:25:55.224Z,-2.29
2024-01-20T00:28:23.709Z,-2.30
2024-01-20T00:30:55.101Z,-2.31
2024-01-20T00:33:23.854Z,-2.31
2024-01-20T00:35:52.598Z,-2.31
2024-01-20T00:38:20.948Z,-2.31
2024-01-20T00:40:49.382Z,-2.32
2024-01-20T00:43:23.228Z,-2.33
2024-01-20T00:45:52.788Z,-2.34
2024-01-20T00:48:21.593Z,-2.34
2024-01-20T00:50:49.850Z,-2.35
2024-01-20T00:53:18.241Z,-2.35
2024-01-20T00:55:47.257Z,-2.35
2024-01-20T00:58:15.535Z,-2.37
2024-01-20T01:00:44.014Z,-2.38
2024-01-20T01:03:12.456Z,-2.38
2024-01-20T01:05:40.816Z,-2.39
2024-01-20T01:08:14.169Z,-2.40
2024-01-20T01:10:43.281Z,-2.41
2024-01-20T01:13:11.680Z,-2.43
2024-01-20T01:15:39.914Z,-2.43
2024-01-20T01:18:10.048Z,-2.43
2024-01-20T01:20:38.357Z,-2.43
2024-01-20T01:23:06.758Z,-2.44
2024-01-20T01:25:35.148Z,-2.45
2024-01-20T01:28:03.865Z,-2.46
2024-01-20T01:30:32.854Z,-2.47
2024-01-20T01:33:01.214Z,-2.49
2024-01-20T01:35:29.781Z,-2.50
2024-01-20T01:38:15.026Z,-2.50
2024-01-20T01:40:59.783Z,-2.52
2024-01-20T01:43:30.734Z,-2.54
2024-01-20T01:46:06.159Z,-2.55
2024-01-20T01:48:35.240Z,-2.56
2024-01-20T01:51:05.678Z,-2.56
2024-01-20T01:53:35.495Z,-2.57
2024-01-20T01:56:06.363Z,-2.58
2024-01-20T01:58:34.649Z,-2.58
2024-01-20T02:01:03.042Z,-2.59
2024-01-20T02:03:31.667Z,-2.60
2024-01-20T02:06:00.141Z,-2.61
2024-01-20T02:08:29.450Z,-2.61
2024-01-20T02:10:58.850Z,-2.61
2024-01-20T02:13:27.144Z,-2.63
2024-01-20T02:15:55.753Z,-2.62
2024-01-20T02:18:24.266Z,-2.63
2024-01-20T02:20:52.823Z,-2.63
2024-01-20T02:23:21.609Z,-2.64
2024-01-20T02:25:49.841Z,-2.65
2024-01-20T02:28:18.203Z,-2.65
2024-01-20T02:30:48.062Z,-2.67
2024-01-20T02:33:16.585Z,-2.69
2024-01-20T02:35:45.118Z,-2.70
2024-01-20T02:38:13.592Z,-2.73
2024-01-20T02:40:41.817Z,-2.76
2024-01-20T02:43:10.113Z,-2.77
2024-01-20T02:45:38.429Z,-2.80
2024-01-20T02:48:07.471Z,-2.83
2024-01-20T02:50:35.954Z,-2.87
2024-01-20T02:53:04.387Z,-2.91
2024-01-20T02:55:33.743Z,-2.96
2024-01-20T02:58:02.380Z,-3.01
2024-01-20T03:00:30.651Z,-3.06
2024-01-20T03:02:59.013Z,-3.12
2024-01-20T03:05:27.430Z,-3.17
2024-01-20T03:07:56.019Z,-3.22
2024-01-20T03:10:24.510Z,-3.28
2024-01-20T03:12:52.864Z,-3.33
2024-01-20T03:15:21.333Z,-3.39
2024-01-20T03:17:49.691Z,-3.44
2024-01-20T03:20:18.011Z,-3.50
2024-01-20T03:22:46.179Z,-3.55
2024-01-20T03:25:14.789Z,-3.60
2024-01-20T03:27:43.160Z,-3.65
2024-01-20T03:30:11.926Z,-3.69
2024-01-20T03:32:40.275Z,-3.73
2024-01-20T03:35:09.121Z,-3.77
2024-01-20T03:37:37.360Z,-3.81
2024-01-20T03:40:06.057Z,-3.84
2024-01-20T03:42:34.501Z,-3.87
2024-01-20T03:45:03.182Z,-3.90
2024-01-20T03:47:33.210Z,-3.93
2024-01-20T03:50:05.280Z,-3.97
2024-01-20T03:52:33.864Z,-4.00
2024-01-20T03:55:02.245Z,-4.03
2024-01-20T03:57:30.597Z,-4.06
2024-01-20T03:59:59.370Z,-4.10
2024-01-20T04:02:29.087Z,-4.13
2024-01-20T04:04:57.586Z,-4.15
2024-01-20T04:07:26.168Z,-4.18
2024-01-20T04:09:54.522Z,-4.21
2024-01-20T04:12:22.836Z,-4.22
2024-01-20T04:14:51.194Z,-4.25
2024-01-20T04:17:19.630Z,-4.29
2024-01-20T04:19:47.892Z,-4.31
2024-01-20T04:22:16.105Z,-4.34
2024-01-20T04:24:44.264Z,-4.37
2024-01-20T04:27:12.713Z,-4.40
2024-01-20T04:29:41.173Z,-4.41
2024-01-20T04:32:09.473Z,-4.43
2024-01-20T04:34:37.866Z,-4.46
2024-01-20T04:37:07.668Z,-4.50
2024-01-20T04:39:36.030Z,-4.52
2024-01-20T04:42:04.853Z,-4.55
2024-01-20T04:44:33.260Z,-4.57
2024-01-20T04:47:01.385Z,-4.58
2024-01-20T04:49:30.066Z,-4.61
2024-01-20T04:52:03.104Z,-4.62
2024-01-20T04:54:31.584Z,-4.65
2024-01-20T04:56:59.946Z,-4.66
2024-01-20T04:59:28.422Z,-4.69
2024-01-20T05:01:56.626Z,-4.73
2024-01-20T05:04:24.855Z,-4.76
2024-01-20T05:06:53.209Z,-4.78
2024-01-20T05:09:21.839Z,-4.79
2024-01-20T05:11:50.429Z,-4.81
2024-01-20T05:14:18.787Z,-4.86
2024-01-20T05:16:46.993Z,-4.87
2024-01-20T05:19:15.634Z,-4.90
2024-01-20T05:21:45.301Z,-4.92
2024-01-20T05:24:15.403Z,-4.94
2024-01-20T05:26:44.394Z,-4.96
2024-01-20T05:29:12.995Z,-4.97
2024-01-20T05:31:41.329Z,-5.00
2024-01-20T05:34:09.820Z,-5.02
2024-01-20T05:36:38.799Z,-5.03
2024-01-20T05:39:07.263Z,-5.05
2024-01-20T05:41:35.595Z,-5.05
2024-01-20T05:44:04.225Z,-5.05
2024-01-20T05:46:32.692Z,-5.05
2024-01-20T05:49:01.199Z,-5.04
2024-01-20T05:51:29.737Z,-5.06
2024-01-20T05:53:58.605Z,-5.05
2024-01-20T05:56:27.033Z,-5.02
2024-01-20T05:58:55.151Z,-5.02
2024-01-20T06:01:23.530Z,-5.03
2024-01-20T06:03:52.117Z,-5.03
2024-01-20T06:06:20.525Z,-5.02
2024-01-20T06:08:48.880Z,-5.02
2024-01-20T06:11:17.094Z,-5.02
2024-01-20T06:13:45.432Z,-5.01
2024-01-20T06:16:14.304Z,-5.02
2024-01-20T06:18:42.702Z,-5.02
2024-01-20T06:21:10.924Z,-5.02
2024-01-20T06:23:39.491Z,-5.00
2024-01-20T06:26:07.631Z,-4.99
2024-01-20T06:28:35.790Z,-4.99
2024-01-20T06:31:04.431Z,-4.99
2024-01-20T06:33:32.838Z,-5.00
2024-01-20T06:36:01.301Z,-4.99
2024-01-20T06:38:29.690Z,-4.97
2024-01-20T06:40:58.122Z,-4.93
2024-01-20T06:43:26.555Z,-4.90
2024-01-20T06:45:54.887Z,-4.88
2024-01-20T06:48:23.207Z,-4.88
2024-01-20T06:50:51.650Z,-4.89
2024-01-20T06:53:19.854Z,-4.91
2024-01-20T06:55:48.127Z,-4.92
2024-01-20T06:58:16.483Z,-4.95
2024-01-20T07:00:44.876Z,-4.98
2024-01-20T07:03:13.622Z,-5.00
2024-01-20T07:05:42.890Z,-5.03
2024-01-20T07:08:11.782Z,-5.04
2024-01-20T07:10:40.408Z,-5.05
2024-01-20T07:13:10.708Z,-5.05
2024-01-20T07:15:39.628Z,-4.98
2024-01-20T07:18:08.480Z,-4.80
2024-01-20T07:20:36.829Z,-4.59
2024-01-20T07:23:05.017Z,-4.36
2024-01-20T07:25:37.794Z,-4.15
2024-01-20T07:28:06.327Z,-3.94
2024-01-20T07:30:34.893Z,-3.76
2024-01-20T07:33:03.491Z,-3.61
2024-01-20T07:35:31.947Z,-3.44
2024-01-20T07:38:00.151Z,-3.30
2024-01-20T07:40:28.472Z,-3.17
2024-01-20T07:42:57.077Z,-3.05
2024-01-20T07:45:28.323Z,-2.97
2024-01-20T07:47:56.816Z,-2.86
2024-01-20T07:50:25.452Z,-2.72
2024-01-20T07:52:53.955Z,-2.59
2024-01-20T07:55:22.250Z,-2.47
2024-01-20T07:57:50.780Z,-2.36
2024-01-20T08:00:19.415Z,-2.29
2024-01-20T08:02:48.236Z,-2.22
2024-01-20T08:05:16.971Z,-2.09
2024-01-20T08:07:45.431Z,-1.94
2024-01-20T08:10:13.887Z,-1.77
2024-01-20T08:12:42.762Z,-1.62
2024-01-20T08:15:11.147Z,-1.46
2024-01-20T08:17:40.815Z,-1.30
2024-01-20T08:20:11.157Z,-1.13
2024-01-20T08:22:39.422Z,-0.98
2024-01-20T08:25:08.270Z,-0.85
2024-01-20T08:27:36.950Z,-0.70
2024-01-20T08:30:06.172Z,-0.54
2024-01-20T08:32:34.577Z,-0.40
2024-01-20T08:35:02.936Z,-0.27
2024-01-20T08:37:31.317Z,-0.16
2024-01-20T08:39:59.817Z,-0.05
2024-01-20T08:42:28.780Z,0.06
2024-01-20T08:44:57.073Z,0.06
2024-01-20T08:47:25.421Z,0.15
2024-01-20T08:49:54.117Z,0.27
2024-01-20T08:52:22.587Z,0.39
2024-01-20T08:54:51.034Z,0.47
2024-01-20T08:57:19.624Z,0.54
2024-01-20T08:59:48.258Z,0.66
2024-01-20T09:02:16.614Z,0.70
2024-01-20T09:04:44.903Z,0.80
2024-01-20T09:07:13.174Z,0.85
2024-01-20T09:09:41.392Z,0.94
2024-01-20T09:12:09.692Z,1.00
2024-01-20T09:14:38.053Z,1.10
2024-01-20T09:17:06.871Z,1.18
2024-01-20T09:19:35.200Z,1.26
2024-01-20T09:22:03.527Z,1.36
2024-01-20T09:24:31.954Z,1.49
2024-01-20T09:27:01.204Z,1.67
2024-01-20T09:29:29.697Z,1.82
2024-01-20T09:31:58.261Z,1.92
2024-01-20T09:34:26.550Z,2.07
2024-01-20T09:36:54.831Z,2.17
2024-01-20T09:39:23.203Z,2.04
2024-01-20T09:41:52.251Z,2.04
2024-01-20T09:44:21.293Z,2.10
2024-01-20T09:46:49.742Z,2.09
2024-01-20T09:49:18.242Z,2.04
2024-01-20T09:51:52.308Z,2.09
2024-01-20T09:54:24.119Z,2.19
2024-01-20T09:56:53.029Z,2.20
2024-01-20T09:59:23.865Z,2.20
2024-01-20T10:01:53.419Z,2.09
2024-01-20T10:04:24.913Z,2.20
2024-01-20T10:06:55.328Z,2.31
2024-01-20T10:09:24.286Z,2.38
2024-01-20T10:11:52.965Z,2.49
2024-01-20T10:14:21.141Z,2.71
2024-01-20T10:16:50.463Z,2.92
2024-01-20T10:19:19.040Z,3.05
2024-01-20T10:21:47.681Z,3.16
2024-01-20T10:24:24.980Z,3.25
2024-01-20T10:26:54.740Z,3.38
2024-01-20T10:29:23.204Z,3.54
2024-01-20T10:31:52.021Z,3.68
2024-01-20T10:34:21.764Z,3.65
2024-01-20T10:37:01.094Z,3.71
2024-01-20T10:39:31.252Z,3.90
2024-01-20T10:42:02.804Z,4.11
2024-01-20T10:44:40.936Z,4.30
2024-01-20T10:47:25.510Z,4.27
2024-01-20T10:49:55.319Z,4.24
2024-01-20T10:52:24.079Z,4.09
2024-01-20T10:54:52.541Z,3.88
2024-01-20T10:57:21.661Z,3.71
2024-01-20T10:59:51.332Z,3.71
2024-01-20T11:02:21.059Z,3.80
2024-01-20T11:04:49.625Z,3.91
2024-01-20T11:07:25.643Z,4.09
2024-01-20T11:09:58.283Z,4.15
2024-01-20T11:12:31.185Z,4.14
2024-01-20T11:14:59.941Z,4.09
2024-01-20T11:17:30.270Z,3.98
2024-01-20T11:20:07.949Z,3.99
2024-01-20T11:22:47.709Z,4.10
2024-01-20T11:25:19.372Z,4.22
2024-01-20T11:27:49.777Z,4.37
2024-01-20T11:30:34.776Z,4.59
2024-01-20T11:33:04.448Z,4.77
2024-01-20T11:35:33.517Z,4.89
2024-01-20T11:38:02.944Z,5.02
2024-01-20T11:40:31.741Z,5.08
2024-01-20T11:43:07.871Z,5.16
2024-01-20T11:45:36.485Z,5.31
2024-01-20T11:48:06.005Z,5.39
2024-01-20T11:50:35.531Z,5.47
2024-01-20T11:53:04.511Z,5.57
2024-01-20T11:55:34.554Z,5.71
2024-01-20T11:58:04.959Z,5.81
2024-01-20T12:00:33.766Z,5.85
2024-01-20T12:03:02.468Z,5.91
2024-01-20T12:05:35.488Z,6.00
2024-01-20T12:08:05.565Z,6.06
2024-01-20T12:10:34.486Z,6.12
2024-01-20T12:13:05.533Z,6.15
2024-01-20T12:15:37.839Z,6.18
2024-01-20T12:18:08.021Z,6.22
2024-01-20T12:20:39.713Z,6.27
2024-01-20T12:23:08.124Z,6.28
2024-01-20T12:25:36.558Z,6.22
2024-01-20T12:28:05.475Z,6.14
2024-01-20T12:30:33.954Z,6.09
2024-01-20T12:33:02.706Z,5.95
2024-01-20T12:35:31.152Z,5.84
2024-01-20T12:38:00.474Z,5.88
2024-01-20T12:40:31.319Z,5.91
2024-01-20T12:42:59.891Z,5.93
2024-01-20T12:45:30.874Z,6.00
2024-01-20T12:47:59.570Z,6.11
2024-01-20T12:50:29.616Z,6.22
2024-01-20T12:52:58.420Z,6.24
2024-01-20T12:55:26.830Z,6.20
2024-01-20T12:57:55.594Z,6.16
2024-01-20T13:00:24.753Z,6.12
2024-01-20T13:02:53.318Z,6.16
2024-01-20T13:05:22.231Z,6.21
2024-01-20T13:07:50.680Z,6.25
2024-01-20T13:10:19.342Z,6.31
2024-01-20T13:12:47.941Z,6.35
2024-01-20T13:15:16.501Z,6.34
2024-01-20T13:17:46.194Z,6.26
2024-01-20T13:20:14.716Z,6.17
2024-01-20T13:22:43.544Z,6.07
2024-01-20T13:25:11.905Z,5.92
2024-01-20T13:27:41.467Z,5.56
2024-01-20T13:30:11.102Z,5.30
2024-01-20T13:32:40.361Z,5.14
2024-01-20T13:35:10.475Z,5.05
2024-01-20T13:37:39.386Z,4.99
2024-01-20T13:40:11.028Z,4.88
2024-01-20T13:42:42.458Z,4.77
2024-01-20T13:45:12.991Z,4.70
2024-01-20T13:47:41.495Z,4.59
2024-01-20T13:50:11.389Z,4.42
2024-01-20T13:52:40.295Z,4.28
2024-01-20T13:55:09.141Z,3.95
2024-01-20T13:57:38.202Z,3.71
2024-01-20T14:00:07.415Z,3.58
2024-01-20T14:02:37.047Z,3.49
2024-01-20T14:05:06.856Z,3.48
2024-01-20T14:07:35.644Z,3.52
2024-01-20T14:10:06.953Z,3.54
2024-01-20T14:12:37.294Z,3.54
2024-01-20T14:15:06.756Z,3.52
2024-01-20T14:17:35.727Z,3.35
2024-01-20T14:20:04.796Z,3.11
2024-01-20T14:22:35.188Z,2.91
2024-01-20T14:25:06.470Z,2.75
2024-01-20T14:27:35.675Z,2.60
2024-01-20T14:30:05.624Z,2.44
2024-01-20T14:32:34.648Z,2.26
2024-01-20T14:35:04.069Z,2.03
2024-01-20T14:37:32.524Z,1.80
2024-01-20T14:40:01.032Z,1.63
2024-01-20T14:42:30.141Z,1.46
2024-01-20T14:44:58.708Z,1.28
2024-01-20T14:47:27.375Z,1.11
2024-01-20T14:49:56.889Z,1.00
2024-01-20T14:52:25.529Z,0.88
2024-01-20T14:54:54.300Z,0.76
2024-01-20T14:57:22.664Z,0.67
2024-01-20T14:59:53.182Z,0.56
2024-01-20T15:02:21.750Z,0.45
2024-01-20T15:04:50.310Z,0.33
2024-01-20T15:07:20.007Z,0.20
2024-01-20T15:09:49.048Z,0.07
2024-01-20T15:12:17.768Z,-0.05
2024-01-20T15:14:46.269Z,-0.17
2024-01-20T15:17:15.194Z,-0.29
2024-01-20T15:19:43.943Z,-0.41
2024-01-20T15:22:16.416Z,-0.53
2024-01-20T15:24:45.803Z,-0.62
2024-01-20T15:27:14.807Z,-0.72
2024-01-20T15:29:46.561Z,-0.81
2024-01-20T15:32:20.220Z,-0.91
2024-01-20T15:34:50.739Z,-0.97
2024-01-20T15:37:20.352Z,-1.05
2024-01-20T15:39:51.702Z,-1.13
2024-01-20T15:42:22.724Z,-1.21
2024-01-20T15:44:52.695Z,-1.29
2024-01-20T15:47:21.219Z,-1.37
2024-01-20T15:49:49.763Z,-1.43
2024-01-20T15:52:19.065Z,-1.49
2024-01-20T15:54:48.319Z,-1.55
2024-01-20T15:57:16.909Z,-1.60
2024-01-20T15:59:45.329Z,-1.65
2024-01-20T16:02:13.966Z,-1.70
2024-01-20T16:04:42.289Z,-1.76
2024-01-20T16:07:12.409Z,-1.82
2024-01-20T16:09:43.541Z,-1.88
2024-01-20T16:12:12.117Z,-1.95
2024-01-20T16:14:40.685Z,-2.02
2024-01-20T16:17:10.858Z,-2.11
2024-01-20T16:19:39.259Z,-2.20
2024-01-20T16:22:07.835Z,-2.29
2024-01-20T16:24:36.687Z,-2.38
2024-01-20T16:27:05.665Z,-2.47
2024-01-20T16:29:34.260Z,-2.56
2024-01-20T16:32:03.528Z,-2.64
2024-01-20T16:34:32.646Z,-2.72
2024-01-20T16:37:01.381Z,-2.80
2024-01-20T16:39:29.946Z,-2.88
2024-01-20T16:41:58.671Z,-2.96
2024-01-20T16:44:27.425Z,-3.03
2024-01-20T16:46:55.895Z,-3.11
2024-01-20T16:49:25.956Z,-3.17
2024-01-20T16:51:57.867Z,-3.23
2024-01-20T16:54:26.632Z,-3.29
2024-01-20T16:56:56.592Z,-3.34
2024-01-20T16:59:25.608Z,-3.40
2024-01-20T17:01:54.051Z,-3.46
2024-01-20T17:04:22.825Z,-3.52
2024-01-20T17:06:52.168Z,-3.57
2024-01-20T17:09:20.816Z,-3.63
2024-01-20T17:11:49.324Z,-3.68
2024-01-20T17:14:19.526Z,-3.73
2024-01-20T17:16:48.879Z,-3.77
2024-01-20T17:19:20.399Z,-3.82
2024-01-20T17:21:49.033Z,-3.87
2024-01-20T17:24:17.879Z,-3.91
2024-01-20T17:26:46.264Z,-3.95
2024-01-20T17:29:14.586Z,-3.99
2024-01-20T17:31:43.308Z,-4.03
2024-01-20T17:34:13.623Z,-4.08
2024-01-20T17:36:42.087Z,-4.12
2024-01-20T17:39:11.042Z,-4.17
2024-01-20T17:41:41.417Z,-4.23
2024-01-20T17:44:09.920Z,-4.29
2024-01-20T17:46:46.706Z,-4.36
2024-01-20T17:49:16.313Z,-4.44
2024-01-20T17:51:47.207Z,-4.50
2024-01-20T17:54:15.588Z,-4.55
2024-01-20T17:56:44.021Z,-4.59
2024-01-20T17:59:12.413Z,-4.62
2024-01-20T18:01:40.877Z,-4.65
2024-01-20T18:04:09.451Z,-4.68
2024-01-20T18:06:38.158Z,-4.72
2024-01-20T18:09:06.602Z,-4.75
2024-01-20T18:11:35.325Z,-4.79
2024-01-20T18:14:04.232Z,-4.83
2024-01-20T18:16:33.864Z,-4.86
2024-01-20T18:19:02.579Z,-4.87
2024-01-20T18:21:31.567Z,-4.89
2024-01-20T18:24:00.179Z,-4.92
2024-01-20T18:26:28.895Z,-4.96
2024-01-20T18:28:58.916Z,-5.01
2024-01-20T18:31:35.749Z,-5.05
2024-01-20T18:34:34.268Z,-5.10
2024-01-20T18:37:20.702Z,-5.15
2024-01-20T18:40:02.799Z,-5.19
2024-01-20T18:42:33.069Z,-5.21
2024-01-20T18:45:06.632Z,-5.22
2024-01-20T18:47:35.994Z,-5.22
2024-01-20T18:50:07.156Z,-5.22
2024-01-20T18:52:38.310Z,-5.24
2024-01-20T18:55:07.052Z,-5.27
2024-01-20T18:57:36.726Z,-5.33
2024-01-20T19:00:05.992Z,-5.38
2024-01-20T19:02:34.850Z,-5.42
2024-01-20T19:05:15.119Z,-5.46
2024-01-20T19:07:55.563Z,-5.52
2024-01-20T19:10:25.882Z,-5.59
2024-01-20T19:12:55.822Z,-5.64
2024-01-20T19:15:25.777Z,-5.68
2024-01-20T19:17:54.916Z,-5.72
2024-01-20T19:20:25.158Z,-5.77
2024-01-20T19:22:53.806Z,-5.81
2024-01-20T19:25:22.444Z,-5.85
2024-01-20T19:27:53.470Z,-5.88
2024-01-20T19:30:22.445Z,-5.92
2024-01-20T19:32:53.006Z,-5.94
2024-01-20T19:35:23.475Z,-5.98
2024-01-20T19:37:53.810Z,-6.02
2024-01-20T19:40:22.392Z,-6.05
2024-01-20T19:42:51.167Z,-6.07
2024-01-20T19:45:20.071Z,-6.08
2024-01-20T19:47:50.711Z,-6.10
2024-01-20T19:50:23.547Z,-6.12
2024-01-20T19:52:53.326Z,-6.17
2024-01-20T19:55:22.042Z,-6.21
2024-01-20T19:57:50.536Z,-6.25
2024-01-20T20:00:22.806Z,-6.30
2024-01-20T20:02:51.979Z,-6.34
2024-01-20T20:05:21.801Z,-6.39
2024-01-20T20:08:00.235Z,-6.45
2024-01-20T20:10:31.782Z,-6.49
2024-01-20T20:13:00.720Z,-6.52
2024-01-20T20:15:29.437Z,-6.57
2024-01-20T20:17:58.361Z,-6.62
2024-01-20T20:20:27.079Z,-6.66
2024-01-20T20:22:55.622Z,-6.69
2024-01-20T20:25:24.261Z,-6.73
2024-01-20T20:27:53.081Z,-6.77
2024-01-20T20:30:28.195Z,-6.80
2024-01-20T20:32:57.655Z,-6.83
2024-01-20T20:35:26.444Z,-6.84
2024-01-20T20:37:58.269Z,-6.84
2024-01-20T20:40:26.816Z,-6.83
2024-01-20T20:42:55.479Z,-6.84
2024-01-20T20:45:24.179Z,-6.86
2024-01-20T20:47:52.798Z,-6.89
2024-01-20T20:50:21.957Z,-6.91
2024-01-20T20:52:50.407Z,-6.95
2024-01-20T20:55:18.903Z,-6.99
2024-01-20T20:57:47.336Z,-7.02
2024-01-20T21:00:16.763Z,-7.05
2024-01-20T21:02:45.861Z,-7.10
2024-01-20T21:05:17.545Z,-7.14
2024-01-20T21:07:47.650Z,-7.17
2024-01-20T21:10:18.503Z,-7.18
2024-01-20T21:12:47.877Z,-7.19
2024-01-20T21:15:17.054Z,-7.21
2024-01-20T21:17:45.766Z,-7.23
2024-01-20T21:20:14.560Z,-7.24
2024-01-20T21:22:43.886Z,-7.28
2024-01-20T21:25:15.130Z,-7.30
2024-01-20T21:27:43.494Z,-7.33
2024-01-20T21:30:12.435Z,-7.36
2024-01-20T21:32:40.868Z,-7.39
2024-01-20T21:35:09.684Z,-7.43
2024-01-20T21:37:38.162Z,-7.46
2024-01-20T21:40:08.349Z,-7.48
2024-01-20T21:42:37.112Z,-7.52
2024-01-20T21:45:06.246Z,-7.55
2024-01-20T21:47:35.128Z,-7.58
2024-01-20T21:50:04.246Z,-7.61
2024-01-20T21:52:32.847Z,-7.61
2024-01-20T21:55:06.531Z,-7.60
2024-01-20T21:57:37.919Z,-7.58
2024-01-20T22:00:10.209Z,-7.57
2024-01-20T22:02:45.112Z,-7.58
2024-01-20T22:05:13.979Z,-7.59
2024-01-20T22:07:43.080Z,-7.60
2024-01-20T22:10:13.516Z,-7.60
2024-01-20T22:12:42.642Z,-7.62
2024-01-20T22:15:11.338Z,-7.63
2024-01-20T22:17:39.886Z,-7.63
2024-01-20T22:20:09.723Z,-7.62
2024-01-20T22:22:43.382Z,-7.62
2024-01-20T22:25:12.592Z,-7.64
2024-01-20T22:27:41.088Z,-7.65
2024-01-20T22:30:48.094Z,-7.66
2024-01-20T22:33:25.947Z,-7.69
2024-01-20T22:35:54.354Z,-7.73
2024-01-20T22:38:22.969Z,-7.75
2024-01-20T22:40:51.884Z,-7.77
2024-01-20T22:43:20.299Z,-7.80
2024-01-20T22:45:52.372Z,-7.84
2024-01-20T22:48:33.506Z,-7.89
2024-01-20T22:51:05.174Z,-7.95
2024-01-20T22:53:35.699Z,-8.01
2024-01-20T22:56:05.155Z,-8.06
2024-01-20T22:58:35.302Z,-8.08
2024-01-20T23:01:03.836Z,-8.08
2024-01-20T23:03:32.485Z,-8.06
2024-01-20T23:06:01.015Z,-8.07
2024-01-20T23:08:29.381Z,-8.09
2024-01-20T23:11:03.248Z,-8.13
2024-01-20T23:13:31.545Z,-8.18
2024-01-20T23:16:03.608Z,-8.23
2024-01-20T23:18:32.347Z,-8.27
2024-01-20T23:21:00.806Z,-8.30
2024-01-20T23:23:31.545Z,-8.34
2024-01-20T23:26:00.538Z,-8.34
2024-01-20T23:28:28.985Z,-8.35
2024-01-20T23:30:57.286Z,-8.37
2024-01-20T23:33:25.730Z,-8.40
2024-01-20T23:35:54.500Z,-8.45
2024-01-20T23:38:23.659Z,-8.49
2024-01-20T23:40:51.985Z,-8.52
2024-01-20T23:43:23.551Z,-8.55
2024-01-20T23:45:52.819Z,-8.58
2024-01-20T23:48:21.954Z,-8.62
2024-01-20T23:50:50.488Z,-8.66
2024-01-20T23:53:19.108Z,-8.70
2024-01-20T23:55:47.469Z,-8.74
2024-01-20T23:58:16.089Z,-8.77
